Time;durP1;ratioP1;P1;durP2;ratioP2;P2;SDS_P1;SDS_P2;PMS_P1;PMS_P2;Temp;Humidity;BMP_temperature;BMP_pressure;BME280_temperature;BME280_humidity;BME280_pressure;Samples;Min_cycle;Max_cycle;Signal;HPM_P1;HPM_P2
2022/08/21 00:00:39;;;;;;;;;;;;;;;;;;6242404;22;20015;-89
2022/08/21 00:03:07;;;;;;;0.20;0.10;;;;;;;;;;6243816;22;19915;-88
2022/08/21 00:05:58;;;;;;;0.20;0.10;;;;;;;;;;6245941;22;20037;-88
2022/08/21 00:08:33;;;;;;;0.20;0.10;;;;;;;;;;6246132;22;20008;-89
2022/08/21 00:11:02;;;;;;;0.20;0.10;;;;;;;;;;6315189;22;20014;-88
2022/08/21 00:13:29;;;;;;;0.20;0.10;;;;;;;;;;6316003;22;20473;-89
2022/08/21 00:16:21;;;;;;;0.20;0.10;;;;;;;;;;6315307;22;20010;-90
2022/08/21 00:19:03;;;;;;;;;;;;;;;;;;;;;
2022/08/21 00:31:35;;;;;;;;;;;;;;;;;;;;;
2022/08/21 00:34:41;;;;;;;;;;;;;;;;;;;;;
2022/08/21 00:38:31;;;;;;;0.20;0.10;;;;;;;;;;6205928;23;20013;-89
2022/08/21 00:48:34;;;;;;;;;;;;;;;;;;;;;
2022/08/21 00:51:57;;;;;;;;;;;;;;;;;;;;;
2022/08/21 01:11:58;;;;;;;0.20;0.10;;;;;;;;;;6187544;22;20025;-89
2022/08/21 01:21:15;;;;;;;0.20;0.10;;;;;;;;;;6230219;22;20053;-89
2022/08/21 01:23:48;;;;;;;0.20;0.10;;;;;;;;;;6281607;22;20030;-88
2022/08/21 01:26:19;;;;;;;0.20;0.10;;;;;;;;;;6332176;22;20014;-89
2022/08/21 01:29:00;;;;;;;0.30;0.10;;;;;;;;;;6316565;22;20010;-89
2022/08/21 01:31:34;;;;;;;0.20;0.10;;;;;;;;;;6317918;22;20017;-90
2022/08/21 01:34:15;;;;;;;0.20;0.10;;;;;;;;;;6293503;22;20018;-90
2022/08/21 01:36:43;;;;;;;0.50;0.50;;;;;;;;;;6316560;22;20011;-88
2022/08/21 01:39:18;;;;;;;0.20;0.10;;;;;;;;;;6319522;22;20063;-90
2022/08/21 01:41:44;;;;;;;0.20;0.10;;;;;;;;;;6291636;22;20011;-90
2022/08/21 01:44:26;;;;;;;0.20;0.10;;;;;;;;;;6286968;22;20014;-90
2022/08/21 01:46:58;;;;;;;0.20;0.10;;;;;;;;;;6318999;22;20586;-89
2022/08/21 01:49:48;;;;;;;;;;;;;;;;;;6320513;22;20123;-90
2022/08/21 01:52:33;;;;;;;0.20;0.10;;;;;;;;;;6344241;22;19914;-89
2022/08/21 01:55:02;;;;;;;0.20;0.10;;;;;;;;;;6292533;22;20021;-89
2022/08/21 01:57:37;;;;;;;0.20;0.10;;;;;;;;;;6294122;22;20093;-90
2022/08/21 02:00:13;;;;;;;0.20;0.10;;;;;;;;;;6293861;22;20025;-89
2022/08/21 02:02:45;;;;;;;0.20;0.10;;;;;;;;;;6316313;22;20012;-90
2022/08/21 02:05:17;;;;;;;0.20;0.10;;;;;;;;;;6316208;22;20016;-89
2022/08/21 02:08:09;;;;;;;0.20;0.00;;;;;;;;;;6349377;22;20014;-90
2022/08/21 02:10:47;;;;;;;0.20;0.10;;;;;;;;;;6317597;22;20010;-90
2022/08/21 02:13:13;;;;;;;0.20;0.10;;;;;;;;;;6293302;22;20478;-89
2022/08/21 02:15:39;;;;;;;0.20;0.10;;;;;;;;;;6316161;22;20018;-89
2022/08/21 02:18:06;;;;;;;0.20;0.08;;;;;;;;;;6289947;22;20010;-89
2022/08/21 02:20:34;;;;;;;0.20;0.10;;;;;;;;;;6287207;22;20014;-89
2022/08/21 02:23:01;;;;;;;0.20;0.10;;;;;;;;;;6311977;22;20021;-88
2022/08/21 02:25:27;;;;;;;0.20;0.10;;;;;;;;;;6311493;22;20035;-89
2022/08/21 02:27:54;;;;;;;0.20;0.10;;;;;;;;;;6364163;22;20017;-88
2022/08/21 02:30:28;;;;;;;0.20;0.10;;;;;;;;;;6286965;22;20122;-88
2022/08/21 02:32:54;;;;;;;0.20;0.10;;;;;;;;;;6313726;22;20007;-88
2022/08/21 02:35:20;;;;;;;0.30;0.22;;;;;;;;;;6287593;22;20078;-88
2022/08/21 02:37:54;;;;;;;0.20;0.10;;;;;;;;;;6312363;22;20010;-88
2022/08/21 02:40:23;;;;;;;0.20;0.10;;;;;;;;;;6365712;22;20017;-88
2022/08/21 02:42:49;;;;;;;0.20;0.10;;;;;;;;;;6312900;22;20018;-87
2022/08/21 02:45:17;;;;;;;0.20;0.10;;;;;;;;;;6364822;22;20018;-88
2022/08/21 02:47:53;;;;;;;0.20;0.15;;;;;;;;;;6312660;22;20010;-87
2022/08/21 02:50:31;;;;;;;0.80;0.63;;;;;;;;;;6312121;22;20386;-88
2022/08/21 02:53:00;;;;;;;0.20;0.10;;;;;;;;;;6313936;22;20473;-89
2022/08/21 02:55:28;;;;;;;0.20;0.10;;;;;;;;;;6314668;22;20343;-87
2022/08/21 02:57:55;;;;;;;0.20;0.10;;;;;;;;;;6313264;22;20646;-87
2022/08/21 03:00:22;;;;;;;0.20;0.10;;;;;;;;;;6312335;22;20067;-88
2022/08/21 03:02:48;;;;;;;0.55;0.20;;;;;;;;;;6312631;22;20018;-87
2022/08/21 03:05:15;;;;;;;0.20;0.10;;;;;;;;;;6313019;22;20062;-89
2022/08/21 03:07:42;;;;;;;0.20;0.10;;;;;;;;;;6312063;22;20045;-87
2022/08/21 03:10:08;;;;;;;0.20;0.15;;;;;;;;;;6285467;22;20354;-88
2022/08/21 03:12:38;;;;;;;0.20;0.10;;;;;;;;;;6363710;22;20006;-89
2022/08/21 03:15:04;;;;;;;0.20;0.20;;;;;;;;;;6287014;22;20037;-88
2022/08/21 03:17:31;;;;;;;0.20;0.00;;;;;;;;;;6313317;22;20093;-88
2022/08/21 03:20:00;;;;;;;0.20;0.10;;;;;;;;;;6286585;22;20093;-89
2022/08/21 03:22:27;;;;;;;0.20;0.10;;;;;;;;;;6313197;22;20010;-88
2022/08/21 03:24:57;;;;;;;0.20;0.10;;;;;;;;;;6314001;22;20097;-89
2022/08/21 03:27:24;;;;;;;0.20;0.10;;;;;;;;;;6314441;22;20022;-89
2022/08/21 03:29:50;;;;;;;0.20;0.10;;;;;;;;;;6288748;22;20070;-89
2022/08/21 03:32:18;;;;;;;0.20;0.10;;;;;;;;;;6290149;22;20018;-89
2022/08/21 03:34:44;;;;;;;0.20;0.10;;;;;;;;;;6315641;22;20351;-89
2022/08/21 03:37:17;;;;;;;0.20;0.10;;;;;;;;;;6318018;22;20021;-88
2022/08/21 03:40:06;;;;;;;0.20;0.10;;;;;;;;;;6316945;22;20048;-89
2022/08/21 03:42:58;;;;;;;0.20;0.10;;;;;;;;;;6320823;22;20093;-90
2022/08/21 03:45:46;;;;;;;0.20;0.10;;;;;;;;;;6341278;22;20482;-89
2022/08/21 03:48:21;;;;;;;0.20;0.10;;;;;;;;;;6315735;22;20017;-89
2022/08/21 03:50:53;;;;;;;0.25;0.20;;;;;;;;;;6315387;22;20017;-90
2022/08/21 03:53:19;;;;;;;0.20;0.10;;;;;;;;;;6314478;22;20447;-89
2022/08/21 03:55:52;;;;;;;0.20;0.10;;;;;;;;;;6312819;22;20240;-90
2022/08/21 03:58:19;;;;;;;0.20;0.10;;;;;;;;;;6313157;22;20036;-88
2022/08/21 04:00:50;;;;;;;0.20;0.10;;;;;;;;;;6312680;22;20010;-89
2022/08/21 04:03:17;;;;;;;0.20;0.10;;;;;;;;;;6313187;22;20010;-87
2022/08/21 04:05:45;;;;;;;0.20;0.10;;;;;;;;;;6287115;22;20006;-89
2022/08/21 04:08:18;;;;;;;0.20;0.10;;;;;;;;;;6288233;22;20034;-89
2022/08/21 04:10:45;;;;;;;0.20;0.10;;;;;;;;;;6287493;22;20063;-89
2022/08/21 04:13:14;;;;;;;0.20;0.10;;;;;;;;;;6314325;22;20041;-89
2022/08/21 04:15:43;;;;;;;0.20;0.10;;;;;;;;;;6290132;22;20033;-89
2022/08/21 04:18:12;;;;;;;0.20;0.10;;;;;;;;;;6315838;22;20014;-89
2022/08/21 04:20:45;;;;;;;0.20;0.10;;;;;;;;;;6287737;22;20014;-89
2022/08/21 04:23:11;;;;;;;;;;;;;;;;;;6291437;22;20359;-89
2022/08/21 04:25:38;;;;;;;0.20;0.10;;;;;;;;;;6342417;22;19910;-87
2022/08/21 04:28:15;;;;;;;0.20;0.10;;;;;;;;;;6316409;22;20060;-89
2022/08/21 04:30:50;;;;;;;0.20;0.10;;;;;;;;;;6291699;22;20032;-89
2022/08/21 04:33:30;;;;;;;0.65;0.30;;;;;;;;;;6295621;22;20163;-89
2022/08/21 04:35:56;;;;;;;0.20;0.10;;;;;;;;;;6314406;22;20095;-88
2022/08/21 04:38:23;;;;;;;0.20;0.10;;;;;;;;;;6313710;22;20014;-89
2022/08/21 04:40:55;;;;;;;0.20;0.10;;;;;;;;;;6316084;22;20066;-88
2022/08/21 04:43:23;;;;;;;0.20;0.10;;;;;;;;;;6289423;22;20014;-88
2022/08/21 04:45:50;;;;;;;0.20;0.10;;;;;;;;;;6285661;22;20010;-88
2022/08/21 04:48:18;;;;;;;0.20;0.10;;;;;;;;;;6315229;22;20336;-88
2022/08/21 04:51:02;;;;;;;0.20;0.10;;;;;;;;;;6319442;22;20509;-89
2022/08/21 04:53:44;;;;;;;0.20;0.10;;;;;;;;;;6314802;22;20028;-89
2022/08/21 04:56:34;;;;;;;0.20;0.10;;;;;;;;;;6319108;22;20021;-88
2022/08/21 04:59:04;;;;;;;0.22;0.13;;;;;;;;;;6221860;22;20027;-87
2022/08/21 05:01:36;;;;;;;0.20;0.10;;;;;;;;;;6175284;23;20012;-88
2022/08/21 05:04:04;;;;;;;0.20;0.17;;;;;;;;;;6176328;23;20443;-88
2022/08/21 05:06:32;;;;;;;0.38;0.35;;;;;;;;;;6176120;23;20239;-89
2022/08/21 05:08:58;;;;;;;0.20;0.10;;;;;;;;;;6177744;23;20385;-88
2022/08/21 05:11:24;;;;;;;0.20;0.10;;;;;;;;;;6176639;23;20013;-88
2022/08/21 05:13:50;;;;;;;0.20;0.00;;;;;;;;;;6176694;23;20021;-87
2022/08/21 05:16:17;;;;;;;0.20;0.10;;;;;;;;;;6175591;23;20423;-87
2022/08/21 05:18:43;;;;;;;0.20;0.10;;;;;;;;;;6175946;23;20020;-89
2022/08/21 05:21:12;;;;;;;0.20;0.10;;;;;;;;;;6151883;23;20074;-89
2022/08/21 05:23:38;;;;;;;0.20;0.10;;;;;;;;;;6173488;23;20047;-90
2022/08/21 05:26:07;;;;;;;0.20;0.10;;;;;;;;;;6175658;23;20016;-89
2022/08/21 05:28:36;;;;;;;0.20;0.00;;;;;;;;;;6173881;23;20062;-88
2022/08/21 05:31:02;;;;;;;0.20;0.10;;;;;;;;;;6174916;23;20020;-89
2022/08/21 05:33:31;;;;;;;0.20;0.00;;;;;;;;;;6174695;23;20028;-89
2022/08/21 05:36:00;;;;;;;0.20;0.10;;;;;;;;;;6177014;23;20020;-90
2022/08/21 05:38:30;;;;;;;0.25;0.20;;;;;;;;;;6177295;23;20020;-88
2022/08/21 05:40:56;;;;;;;0.20;0.10;;;;;;;;;;6177598;23;20016;-88
2022/08/21 05:43:22;;;;;;;0.20;0.10;;;;;;;;;;6176908;23;20346;-87
2022/08/21 05:45:50;;;;;;;0.20;0.10;;;;;;;;;;6177286;23;20449;-89
2022/08/21 05:48:18;;;;;;;0.20;0.10;;;;;;;;;;6176911;23;20539;-89
2022/08/21 05:50:45;;;;;;;0.20;0.10;;;;;;;;;;6176305;23;20020;-87
2022/08/21 05:53:12;;;;;;;0.20;0.10;;;;;;;;;;6176793;23;20020;-88
2022/08/21 05:55:38;;;;;;;0.25;0.10;;;;;;;;;;6227358;23;20038;-89
2022/08/21 05:58:05;;;;;;;0.20;0.10;;;;;;;;;;6225538;22;20023;-88
2022/08/21 06:00:32;;;;;;;0.68;0.25;;;;;;;;;;6176305;23;20039;-88
2022/08/21 06:02:58;;;;;;;0.20;0.10;;;;;;;;;;6226033;22;20023;-89
2022/08/21 06:05:24;;;;;;;0.20;0.10;;;;;;;;;;6176301;23;20015;-91
2022/08/21 06:07:51;;;;;;;0.20;0.10;;;;;;;;;;6175986;23;20019;-88
2022/08/21 06:10:17;;;;;;;0.20;0.05;;;;;;;;;;6177111;23;20312;-87
2022/08/21 06:12:43;;;;;;;0.20;0.10;;;;;;;;;;6175555;23;20537;-89
2022/08/21 06:15:12;;;;;;;0.73;0.20;;;;;;;;;;6225952;23;20042;-89
2022/08/21 06:17:41;;;;;;;0.20;0.10;;;;;;;;;;6178670;23;20065;-91
2022/08/21 06:20:08;;;;;;;0.20;0.10;;;;;;;;;;6179766;23;20035;-90
2022/08/21 06:22:34;;;;;;;0.20;0.05;;;;;;;;;;6180064;23;20020;-87
2022/08/21 06:25:02;;;;;;;0.20;0.00;;;;;;;;;;6177803;23;20023;-87
2022/08/21 06:27:29;;;;;;;0.20;0.00;;;;;;;;;;6177010;23;20013;-88
2022/08/21 06:29:57;;;;;;;0.20;0.10;;;;;;;;;;6176297;23;20019;-88
2022/08/21 06:32:23;;;;;;;0.20;0.10;;;;;;;;;;6176192;23;20016;-87
2022/08/21 06:34:49;;;;;;;0.20;0.05;;;;;;;;;;6176318;22;20067;-88
2022/08/21 06:37:15;;;;;;;0.20;0.20;;;;;;;;;;6176422;23;20023;-87
2022/08/21 06:39:41;;;;;;;0.20;0.10;;;;;;;;;;6175892;23;20061;-89
2022/08/21 06:42:13;;;;;;;0.20;0.10;;;;;;;;;;6155923;22;20345;-89
2022/08/21 06:44:39;;;;;;;0.20;0.10;;;;;;;;;;6227629;23;20115;-89
2022/08/21 06:47:05;;;;;;;0.20;0.15;;;;;;;;;;6176949;23;20016;-87
2022/08/21 06:49:38;;;;;;;0.20;0.10;;;;;;;;;;6176276;23;20391;-91
2022/08/21 06:52:04;;;;;;;0.20;0.10;;;;;;;;;;6201182;23;20013;-89
2022/08/21 06:54:30;;;;;;;0.20;0.10;;;;;;;;;;6176952;23;20044;-85
2022/08/21 06:56:56;;;;;;;0.20;0.10;;;;;;;;;;6177007;23;20016;-88
2022/08/21 06:59:28;;;;;;;0.20;0.10;;;;;;;;;;6225951;22;20070;-86
2022/08/21 07:01:54;;;;;;;0.20;0.10;;;;;;;;;;6176535;23;20095;-90
2022/08/21 07:04:20;;;;;;;0.20;0.10;;;;;;;;;;6177707;23;20036;-89
2022/08/21 07:06:46;;;;;;;0.20;0.10;;;;;;;;;;6177550;23;20023;-86
2022/08/21 07:09:12;;;;;;;0.32;0.32;;;;;;;;;;6226942;22;20012;-89
2022/08/21 07:11:38;;;;;;;0.20;0.10;;;;;;;;;;6176965;23;20051;-90
2022/08/21 07:14:05;;;;;;;0.20;0.10;;;;;;;;;;6151827;23;20012;-88
2022/08/21 07:16:37;;;;;;;0.20;0.10;;;;;;;;;;6176397;23;20564;-90
2022/08/21 07:19:03;;;;;;;0.30;0.10;;;;;;;;;;6184790;23;20452;-88
2022/08/21 07:21:29;;;;;;;0.20;0.10;;;;;;;;;;6184048;23;20036;-90
2022/08/21 07:23:57;;;;;;;0.20;0.10;;;;;;;;;;6185002;23;20021;-89
2022/08/21 07:26:24;;;;;;;0.20;0.10;;;;;;;;;;6184808;23;20023;-85
2022/08/21 07:28:51;;;;;;;0.20;0.10;;;;;;;;;;6184911;23;20111;-85
2022/08/21 07:31:18;;;;;;;0.20;0.10;;;;;;;;;;6184321;23;20017;-88
2022/08/21 07:33:44;;;;;;;0.20;0.10;;;;;;;;;;6183964;23;20081;-86
2022/08/21 07:36:11;;;;;;;0.20;0.10;;;;;;;;;;6185512;23;20473;-88
2022/08/21 07:38:40;;;;;;;0.52;0.52;;;;;;;;;;6185015;22;20016;-86
2022/08/21 07:41:25;;;;;;;0.20;0.10;;;;;;;;;;6187667;23;20016;-89
2022/08/21 07:43:51;;;;;;;0.20;0.10;;;;;;;;;;6232806;23;20012;-87
2022/08/21 07:46:18;;;;;;;0.20;0.10;;;;;;;;;;6180858;23;20399;-86
2022/08/21 07:48:53;;;;;;;;;;;;;;;;;;6155810;23;20017;-88
2022/08/21 07:51:24;;;;;;;0.20;0.10;;;;;;;;;;6201864;23;19916;-87
2022/08/21 07:53:54;;;;;;;0.20;0.10;;;;;;;;;;6228099;23;20066;-87
2022/08/21 07:56:20;;;;;;;0.20;0.10;;;;;;;;;;6178444;23;20047;-84
2022/08/21 07:58:46;;;;;;;0.20;0.10;;;;;;;;;;6179199;23;20023;-89
2022/08/21 08:01:13;;;;;;;0.20;0.10;;;;;;;;;;6229007;23;20025;-88
2022/08/21 08:03:42;;;;;;;0.20;0.10;;;;;;;;;;6179827;23;20024;-86
2022/08/21 08:06:11;;;;;;;0.22;0.22;;;;;;;;;;6178084;22;20043;-87
2022/08/21 08:08:41;;;;;;;0.40;0.20;;;;;;;;;;6177579;23;20016;-89
2022/08/21 08:11:08;;;;;;;0.20;0.10;;;;;;;;;;6177477;23;20044;-87
2022/08/21 08:13:48;;;;;;;0.20;0.10;;;;;;;;;;6177936;23;20016;-88
2022/08/21 08:16:15;;;;;;;0.20;0.10;;;;;;;;;;6174942;23;20155;-85
2022/08/21 08:18:44;;;;;;;0.20;0.00;;;;;;;;;;6152070;23;20013;-87
2022/08/21 08:21:11;;;;;;;0.20;0.10;;;;;;;;;;6174792;23;20432;-87
2022/08/21 08:23:40;;;;;;;0.20;0.10;;;;;;;;;;6224860;23;20017;-87
2022/08/21 08:26:09;;;;;;;0.20;0.10;;;;;;;;;;6154505;23;20017;-88
2022/08/21 08:28:35;;;;;;;0.20;0.10;;;;;;;;;;6178341;23;20015;-85
2022/08/21 08:31:01;;;;;;;0.20;0.10;;;;;;;;;;6177551;23;20465;-84
2022/08/21 08:33:27;;;;;;;0.20;0.10;;;;;;;;;;6176676;23;20020;-87
2022/08/21 08:35:54;;;;;;;0.20;0.10;;;;;;;;;;6178379;23;20545;-84
2022/08/21 08:38:24;;;;;;;0.20;0.10;;;;;;;;;;6178279;23;20468;-85
2022/08/21 08:41:09;;;;;;;0.20;0.10;;;;;;;;;;6180118;23;20516;-87
2022/08/21 08:43:36;;;;;;;0.20;0.10;;;;;;;;;;6178173;23;20066;-86
2022/08/21 08:46:06;;;;;;;0.20;0.10;;;;;;;;;;6177673;23;20318;-84
2022/08/21 08:48:46;;;;;;;0.20;0.10;;;;;;;;;;6176691;23;20067;-84
2022/08/21 08:51:35;;;;;;;0.20;0.10;;;;;;;;;;6178630;23;20017;-84
2022/08/21 08:54:06;;;;;;;0.20;0.10;;;;;;;;;;6181499;23;20506;-83
2022/08/21 08:56:33;;;;;;;0.20;0.00;;;;;;;;;;6178591;23;20013;-81
2022/08/21 08:59:02;;;;;;;0.20;0.00;;;;;;;;;;6178338;23;20028;-84
2022/08/21 09:01:28;;;;;;;0.20;0.10;;;;;;;;;;6228319;23;20191;-85
2022/08/21 09:03:54;;;;;;;0.20;0.10;;;;;;;;;;6177896;23;20021;-84
2022/08/21 09:06:26;;;;;;;0.20;0.08;;;;;;;;;;6176470;23;20031;-82
2022/08/21 09:09:11;;;;;;;0.20;0.10;;;;;;;;;;6227393;22;20028;-80
2022/08/21 09:11:42;;;;;;;0.20;0.10;;;;;;;;;;6177052;23;20023;-87
2022/08/21 09:14:14;;;;;;;0.20;0.20;;;;;;;;;;6177805;23;20044;-85
2022/08/21 09:16:59;;;;;;;0.20;0.10;;;;;;;;;;6228191;23;20025;-86
2022/08/21 09:19:31;;;;;;;0.20;0.10;;;;;;;;;;6227743;22;20021;-86
2022/08/21 09:22:24;;;;;;;0.20;0.10;;;;;;;;;;6177424;23;20016;-89
2022/08/21 09:24:53;;;;;;;0.30;0.30;;;;;;;;;;6203849;23;20461;-86
2022/08/21 09:27:21;;;;;;;0.75;0.45;;;;;;;;;;6177408;23;20379;-85
2022/08/21 09:29:50;;;;;;;0.30;0.28;;;;;;;;;;6178856;23;20452;-87
2022/08/21 09:32:31;;;;;;;0.20;0.10;;;;;;;;;;6177057;23;20096;-89
2022/08/21 09:35:00;;;;;;;0.20;0.10;;;;;;;;;;6177725;22;20533;-84
2022/08/21 09:37:28;;;;;;;0.20;0.10;;;;;;;;;;6228256;23;20036;-83
2022/08/21 09:39:57;;;;;;;0.20;0.10;;;;;;;;;;6229254;22;20024;-86
2022/08/21 09:42:34;;;;;;;0.20;0.10;;;;;;;;;;6178281;23;20020;-87
2022/08/21 09:45:10;;;;;;;0.20;0.10;;;;;;;;;;6176285;23;20134;-86
2022/08/21 09:47:36;;;;;;;0.20;0.10;;;;;;;;;;6177104;23;20472;-88
2022/08/21 09:50:10;;;;;;;0.20;0.10;;;;;;;;;;6178238;23;20023;-87
2022/08/21 09:52:42;;;;;;;0.20;0.10;;;;;;;;;;6228044;22;20085;-85
2022/08/21 09:57:38;;;;;;;0.20;0.10;;;;;;;;;;6227262;23;20017;-87
2022/08/21 09:58:01;;;;;;;0.20;0.10;;;;;;;;;;6202323;23;20051;-87
2022/08/21 10:00:35;;;;;;;0.20;0.10;;;;;;;;;;6177806;22;20023;-92
2022/08/21 10:03:16;;;;;;;0.20;0.10;;;;;;;;;;6177039;23;20445;-84
2022/08/21 10:05:51;;;;;;;0.20;0.10;;;;;;;;;;6177554;23;20460;-85
2022/08/21 10:08:21;;;;;;;0.20;0.10;;;;;;;;;;6179760;23;20523;-85
2022/08/21 10:10:50;;;;;;;0.20;0.10;;;;;;;;;;6229130;23;20009;-82
2022/08/21 10:13:25;;;;;;;0.20;0.10;;;;;;;;;;6176384;23;20012;-86
2022/08/21 10:16:09;;;;;;;0.20;0.10;;;;;;;;;;6177076;23;20451;-86
2022/08/21 10:18:48;;;;;;;0.20;0.10;;;;;;;;;;6176328;23;20063;-90
2022/08/21 10:21:26;;;;;;;0.20;0.10;;;;;;;;;;6176984;23;20020;-88
2022/08/21 10:24:01;;;;;;;0.20;0.20;;;;;;;;;;6177958;23;20017;-85
2022/08/21 10:26:45;;;;;;;0.20;0.10;;;;;;;;;;6175897;23;20044;-88
2022/08/21 10:29:11;;;;;;;0.22;0.15;;;;;;;;;;6226045;22;20035;-87
2022/08/21 10:35:08;;;;;;;0.20;0.10;;;;;;;;;;6201006;23;20100;-86
2022/08/21 10:37:46;;;;;;;0.20;0.10;;;;;;;;;;6178397;23;20023;-86
2022/08/21 10:40:18;;;;;;;0.20;0.10;;;;;;;;;;6177400;23;20100;-87
2022/08/21 10:42:44;;;;;;;;;;;;;;;;;;6178000;23;20073;-89
2022/08/21 10:45:13;;;;;;;0.20;0.10;;;;;;;;;;6202082;22;19915;-85
2022/08/21 10:47:45;;;;;;;0.20;0.10;;;;;;;;;;6227096;23;20024;-84
2022/08/21 10:50:15;;;;;;;0.20;0.10;;;;;;;;;;6171621;23;20447;-89
2022/08/21 10:52:44;;;;;;;0.22;0.13;;;;;;;;;;6173645;23;20348;-86
2022/08/21 10:55:16;;;;;;;0.20;0.10;;;;;;;;;;6225140;22;20028;-92
2022/08/21 11:00:22;;;;;;;0.20;0.10;;;;;;;;;;6324245;22;19941;-84
2022/08/21 11:03:02;;;;;;;0.20;0.10;;;;;;;;;;6271584;22;20463;-84
2022/08/21 11:05:33;;;;;;;0.20;0.10;;;;;;;;;;6273019;22;20262;-84
2022/08/21 11:08:09;;;;;;;0.20;0.10;;;;;;;;;;6302368;22;20119;-85
2022/08/21 11:10:52;;;;;;;0.20;0.10;;;;;;;;;;6355123;22;20052;-87
2022/08/21 11:13:39;;;;;;;0.20;0.10;;;;;;;;;;6302920;22;20046;-84
2022/08/21 11:16:11;;;;;;;0.20;0.10;;;;;;;;;;6354990;22;20372;-82
2022/08/21 11:18:39;;;;;;;0.20;0.10;;;;;;;;;;6303295;22;20018;-83
2022/08/21 11:21:11;;;;;;;0.20;0.10;;;;;;;;;;6305096;22;20018;-86
2022/08/21 11:23:41;;;;;;;0.20;0.10;;;;;;;;;;6302164;22;20025;-83
2022/08/21 11:26:15;;;;;;;0.20;0.10;;;;;;;;;;6357673;22;20021;-82
2022/08/21 11:28:46;;;;;;;0.20;0.10;;;;;;;;;;6303333;22;20010;-84
2022/08/21 11:31:29;;;;;;;0.20;0.10;;;;;;;;;;6303114;22;20018;-82
2022/08/21 11:34:05;;;;;;;0.20;0.10;;;;;;;;;;6303621;22;20019;-86
2022/08/21 11:36:43;;;;;;;0.20;0.10;;;;;;;;;;6306987;22;20018;-85
2022/08/21 11:39:29;;;;;;;0.20;0.10;;;;;;;;;;6357956;22;20362;-86
2022/08/21 11:41:58;;;;;;;0.20;0.10;;;;;;;;;;6276436;22;20056;-84
2022/08/21 11:44:44;;;;;;;2.33;1.55;;;;;;;;;;6357707;22;20014;-84
2022/08/21 11:47:23;;;;;;;0.20;0.10;;;;;;;;;;6358984;22;20033;-84
2022/08/21 11:50:03;;;;;;;0.30;0.20;;;;;;;;;;6308460;22;20030;-84
2022/08/21 11:52:37;;;;;;;0.20;0.10;;;;;;;;;;6305057;22;20018;-85
2022/08/21 11:55:10;;;;;;;0.20;0.10;;;;;;;;;;6358136;22;20015;-85
2022/08/21 11:57:45;;;;;;;0.20;0.10;;;;;;;;;;6360418;22;20010;-86
2022/08/21 12:00:17;;;;;;;0.20;0.10;;;;;;;;;;6305173;22;20102;-85
2022/08/21 12:02:47;;;;;;;0.20;0.10;;;;;;;;;;6306472;22;20018;-85
2022/08/21 12:05:23;;;;;;;0.20;0.10;;;;;;;;;;6354091;22;20120;-85
2022/08/21 12:07:59;;;;;;;0.20;0.10;;;;;;;;;;6305121;22;20006;-85
2022/08/21 12:10:31;;;;;;;0.20;0.10;;;;;;;;;;6305084;22;20022;-84
2022/08/21 12:13:08;;;;;;;0.20;0.10;;;;;;;;;;6305409;22;20010;-83
2022/08/21 12:15:34;;;;;;;0.20;0.00;;;;;;;;;;6334260;22;20006;-87
2022/08/21 12:18:03;;;;;;;0.20;0.10;;;;;;;;;;6306021;22;20054;-86
2022/08/21 12:20:38;;;;;;;0.20;0.10;;;;;;;;;;6359271;22;20093;-84
2022/08/21 12:23:17;;;;;;;0.20;0.10;;;;;;;;;;6308202;22;20046;-83
2022/08/21 12:26:03;;;;;;;0.20;0.10;;;;;;;;;;6308223;22;20579;-84
2022/08/21 12:28:31;;;;;;;0.20;0.10;;;;;;;;;;6308874;22;20010;-84
2022/08/21 12:30:57;;;;;;;0.25;0.17;;;;;;;;;;6362062;22;20160;-84
2022/08/21 12:33:29;;;;;;;0.20;0.10;;;;;;;;;;6310317;22;20095;-86
2022/08/21 12:36:03;;;;;;;0.20;0.10;;;;;;;;;;6358718;22;20014;-86
2022/08/21 12:38:33;;;;;;;0.43;0.22;;;;;;;;;;6308089;22;20097;-86
2022/08/21 12:41:01;;;;;;;0.20;0.10;;;;;;;;;;6308123;22;20016;-85
2022/08/21 12:43:39;;;;;;;0.20;0.10;;;;;;;;;;6306997;22;20037;-83
2022/08/21 12:46:06;;;;;;;0.20;0.17;;;;;;;;;;6357980;22;20041;-87
2022/08/21 12:48:52;;;;;;;0.20;0.10;;;;;;;;;;6308045;22;20010;-83
2022/08/21 12:51:23;;;;;;;0.20;0.10;;;;;;;;;;6360945;22;20010;-84
2022/08/21 12:53:50;;;;;;;0.20;0.10;;;;;;;;;;6308574;22;20014;-84
2022/08/21 12:56:21;;;;;;;0.20;0.10;;;;;;;;;;6358614;22;20082;-85
2022/08/21 12:58:49;;;;;;;0.35;0.35;;;;;;;;;;6308030;22;20063;-85
2022/08/21 13:01:23;;;;;;;0.20;0.10;;;;;;;;;;6361565;22;20018;-84
2022/08/21 13:03:50;;;;;;;0.20;0.10;;;;;;;;;;6359657;22;20021;-86
2022/08/21 13:06:17;;;;;;;0.20;0.10;;;;;;;;;;6359665;22;20018;-83
2022/08/21 13:08:45;;;;;;;0.20;0.10;;;;;;;;;;6307880;22;20018;-83
2022/08/21 13:11:15;;;;;;;0.20;0.10;;;;;;;;;;6307960;22;20013;-85
2022/08/21 13:13:41;;;;;;;0.20;0.10;;;;;;;;;;6360680;22;20034;-82
2022/08/21 13:16:08;;;;;;;0.20;0.03;;;;;;;;;;6359809;22;20014;-85
2022/08/21 13:18:39;;;;;;;0.20;0.10;;;;;;;;;;6307708;22;20049;-85
2022/08/21 13:21:13;;;;;;;0.40;0.40;;;;;;;;;;6308556;22;20076;-84
2022/08/21 13:23:39;;;;;;;0.20;0.10;;;;;;;;;;6308524;22;20011;-85
2022/08/21 13:26:12;;;;;;;0.20;0.10;;;;;;;;;;6308087;22;20029;-85
2022/08/21 13:28:41;;;;;;;0.20;0.10;;;;;;;;;;6307516;22;20014;-86
2022/08/21 13:31:10;;;;;;;0.20;0.10;;;;;;;;;;6282513;22;20010;-87
2022/08/21 13:33:37;;;;;;;0.20;0.10;;;;;;;;;;6307880;22;20454;-90
2022/08/21 13:36:10;;;;;;;0.20;0.10;;;;;;;;;;6308148;22;20015;-89
2022/08/21 13:38:37;;;;;;;0.20;0.10;;;;;;;;;;6308190;22;20446;-86
2022/08/21 13:41:04;;;;;;;0.20;0.10;;;;;;;;;;6359381;22;20052;-85
2022/08/21 13:43:34;;;;;;;0.20;0.10;;;;;;;;;;6308685;22;20021;-87
2022/08/21 13:46:01;;;;;;;0.20;0.10;;;;;;;;;;6360405;22;20026;-87
2022/08/21 13:48:33;;;;;;;0.20;0.10;;;;;;;;;;6307721;22;20097;-87
2022/08/21 13:51:00;;;;;;;0.20;0.10;;;;;;;;;;6308830;22;20010;-86
2022/08/21 13:53:44;;;;;;;0.20;0.10;;;;;;;;;;6283959;22;20316;-88
2022/08/21 13:56:21;;;;;;;0.20;0.10;;;;;;;;;;6359114;22;20046;-85
2022/08/21 13:58:47;;;;;;;0.20;0.10;;;;;;;;;;6359306;22;20018;-84
2022/08/21 14:01:29;;;;;;;0.20;0.10;;;;;;;;;;6282688;22;20418;-84
2022/08/21 14:03:59;;;;;;;0.20;0.10;;;;;;;;;;6308261;22;20014;-88
2022/08/21 14:06:26;;;;;;;0.20;0.10;;;;;;;;;;6308407;22;20323;-82
2022/08/21 14:08:59;;;;;;;0.20;0.10;;;;;;;;;;6359542;22;20014;-88
2022/08/21 14:11:27;;;;;;;0.20;0.10;;;;;;;;;;6308370;22;20018;-85
2022/08/21 14:13:58;;;;;;;0.20;0.10;;;;;;;;;;6308806;22;20377;-84
2022/08/21 14:16:44;;;;;;;0.20;0.10;;;;;;;;;;6360501;22;20047;-89
2022/08/21 14:19:37;;;;;;;0.20;0.10;;;;;;;;;;6307174;22;20346;-88
2022/08/21 14:22:22;;;;;;;0.20;0.10;;;;;;;;;;6329313;22;20018;-85
2022/08/21 14:24:48;;;;;;;0.20;0.10;;;;;;;;;;6362274;22;20432;-86
2022/08/21 14:27:17;;;;;;;0.20;0.10;;;;;;;;;;6307742;22;20010;-87
2022/08/21 14:29:43;;;;;;;0.20;0.10;;;;;;;;;;6358281;22;20380;-85
2022/08/21 14:32:30;;;;;;;0.20;0.00;;;;;;;;;;6307521;22;20021;-88
2022/08/21 14:35:10;;;;;;;0.20;0.10;;;;;;;;;;6334337;22;20431;-89
2022/08/21 14:37:57;;;;;;;0.20;0.10;;;;;;;;;;6307296;22;20098;-89
2022/08/21 14:40:54;;;;;;;0.20;0.10;;;;;;;;;;6310689;22;20046;-86
2022/08/21 14:47:21;;;;;;;0.20;0.10;;;;;;;;;;6281668;22;20466;-88
2022/08/21 14:50:07;;;;;;;0.20;0.10;;;;;;;;;;6111154;23;20018;-86
2022/08/21 14:52:51;;;;;;;0.20;0.10;;;;;;;;;;6296606;22;20079;-87
2022/08/21 14:55:24;;;;;;;0.20;0.10;;;;;;;;;;6359300;22;20085;-87
2022/08/21 14:58:00;;;;;;;0.20;0.10;;;;;;;;;;6306836;22;20894;-87
2022/08/21 15:00:46;;;;;;;0.20;0.10;;;;;;;;;;6310831;22;20077;-87
2022/08/21 15:03:21;;;;;;;0.20;0.10;;;;;;;;;;6307957;22;20015;-84
2022/08/21 15:05:48;;;;;;;0.20;0.10;;;;;;;;;;6307526;22;20015;-87
2022/08/21 15:08:33;;;;;;;0.20;0.10;;;;;;;;;;6273049;22;20085;-87
2022/08/21 15:11:21;;;;;;;0.20;0.10;;;;;;;;;;6200998;22;20027;-89
2022/08/21 15:13:52;;;;;;;0.20;0.10;;;;;;;;;;6157760;22;20028;-88
2022/08/21 15:16:48;;;;;;;0.20;0.10;;;;;;;;;;6175989;22;20082;-89
2022/08/21 15:20:09;;;;;;;0.20;0.10;;;;;;;;;;6172157;23;20024;-87
2022/08/21 15:22:18;;;;;;;0.20;0.10;;;;;;;;;;6160344;22;20063;-85
2022/08/21 15:24:44;;;;;;;0.20;0.10;;;;;;;;;;6168883;22;20025;-83
2022/08/21 15:27:11;;;;;;;0.20;0.10;;;;;;;;;;6143970;22;20013;-87
2022/08/21 15:29:37;;;;;;;0.20;0.10;;;;;;;;;;6170925;22;20009;-88
2022/08/21 15:32:16;;;;;;;0.20;0.10;;;;;;;;;;6145567;23;20052;-86
2022/08/21 15:34:42;;;;;;;0.20;0.10;;;;;;;;;;6145710;23;20024;-86
2022/08/21 15:37:08;;;;;;;0.20;0.10;;;;;;;;;;6146439;22;20472;-86
2022/08/21 15:39:35;;;;;;;0.20;0.10;;;;;;;;;;6169978;23;20063;-86
2022/08/21 15:42:02;;;;;;;0.20;0.10;;;;;;;;;;6144406;22;20017;-87
2022/08/21 15:44:28;;;;;;;0.20;0.10;;;;;;;;;;6223996;23;20017;-86
2022/08/21 15:46:55;;;;;;;0.20;0.10;;;;;;;;;;6148690;23;20013;-87
2022/08/21 15:49:21;;;;;;;0.20;0.10;;;;;;;;;;6174242;22;20356;-86
2022/08/21 15:51:47;;;;;;;0.20;0.10;;;;;;;;;;6227346;23;20032;-87
2022/08/21 15:54:13;;;;;;;0.20;0.10;;;;;;;;;;6226125;23;20056;-85
2022/08/21 15:56:41;;;;;;;0.20;0.10;;;;;;;;;;6225389;23;20017;-86
2022/08/21 15:59:09;;;;;;;0.20;0.10;;;;;;;;;;6174026;22;20021;-85
2022/08/21 16:01:36;;;;;;;0.20;0.10;;;;;;;;;;6172790;22;20017;-85
2022/08/21 16:04:03;;;;;;;0.20;0.10;;;;;;;;;;6172796;22;20066;-85
2022/08/21 16:06:29;;;;;;;0.20;0.10;;;;;;;;;;6173075;22;20454;-85
2022/08/21 16:08:55;;;;;;;0.20;0.10;;;;;;;;;;6224945;23;20009;-85